Time;durP1;ratioP1;P1;durP2;ratioP2;P2;SDS_P1;SDS_P2;PMS_P1;PMS_P2;Temp;Humidity;BMP_temperature;BMP_pressure;BME280_temperature;BME280_humidity;BME280_pressure;Samples;Min_cycle;Max_cycle;Signal;HPM_P1;HPM_P2
2022/11/08 00:03:27;;;;;;;12.93;11.77;;;9.80;99.90;;;;;;4996070;28;20437;-51
2022/11/08 00:14:06;;;;;;;12.20;11.20;;;9.70;99.90;;;;;;5009128;28;20493;-51
2022/11/08 00:16:31;;;;;;;12.87;11.83;;;9.70;99.90;;;;;;5008431;28;20971;-52
2022/11/08 00:18:57;;;;;;;12.57;11.67;;;9.70;99.90;;;;;;5002749;28;20191;-53
2022/11/08 00:21:23;;;;;;;12.67;11.47;;;9.70;99.90;;;;;;5005022;28;20242;-50
2022/11/08 00:23:48;;;;;;;12.50;11.60;;;9.80;99.90;;;;;;5008178;28;20237;-53
2022/11/08 00:26:14;;;;;;;12.60;11.60;;;9.80;99.90;;;;;;5004847;28;20187;-51
2022/11/08 00:28:40;;;;;;;12.90;12.00;;;9.80;99.90;;;;;;5001932;28;20191;-50
2022/11/08 00:31:05;;;;;;;12.93;11.80;;;9.80;99.90;;;;;;4990743;28;20907;-53
2022/11/08 00:33:31;;;;;;;12.80;11.80;;;9.80;99.90;;;;;;4990737;28;20176;-53
2022/11/08 00:36:01;;;;;;;12.27;11.47;;;9.80;99.90;;;;;;5010273;28;20490;-52
2022/11/08 00:38:27;;;;;;;13.00;12.00;;;9.70;99.90;;;;;;5008431;28;20575;-49
2022/11/08 00:40:52;;;;;;;14.33;12.90;;;9.70;99.90;;;;;;5001937;28;20442;-49
2022/11/08 00:43:18;;;;;;;12.40;11.50;;;9.70;99.90;;;;;;5009376;28;20448;-51
2022/11/08 00:45:43;;;;;;;12.80;11.90;;;9.70;99.90;;;;;;4997260;28;20195;-49
2022/11/08 00:48:09;;;;;;;12.33;11.53;;;9.60;99.90;;;;;;4996620;28;20192;-51
2022/11/08 00:50:38;;;;;;;12.80;11.80;;;9.60;99.90;;;;;;5001559;28;20271;-51
2022/11/08 00:53:03;;;;;;;13.13;12.13;;;9.50;99.90;;;;;;4990784;28;20179;-53
2022/11/08 00:55:29;;;;;;;12.30;11.40;;;9.50;99.90;;;;;;5005270;28;20465;-49
2022/11/08 00:57:55;;;;;;;13.37;12.30;;;9.50;99.90;;;;;;5009777;28;20179;-51
2022/11/08 01:00:20;;;;;;;13.13;12.13;;;9.40;99.90;;;;;;4988462;28;20282;-52
2022/11/08 01:02:46;;;;;;;12.50;11.37;;;9.40;99.90;;;;;;4998273;28;20195;-51
2022/11/08 01:05:11;;;;;;;13.23;12.07;;;9.40;99.90;;;;;;5008431;28;20520;-53
2022/11/08 01:07:37;;;;;;;12.07;11.00;;;9.30;99.90;;;;;;5004059;28;20546;-47
2022/11/08 01:10:04;;;;;;;12.63;11.67;;;9.30;99.90;;;;;;5003378;28;20245;-51
2022/11/08 01:12:29;;;;;;;12.47;11.57;;;9.30;99.90;;;;;;5001492;28;20246;-52
2022/11/08 01:14:55;;;;;;;13.30;12.40;;;9.30;99.90;;;;;;5003513;28;20985;-50
2022/11/08 01:17:21;;;;;;;12.17;11.27;;;9.40;99.90;;;;;;5009305;28;20241;-53
2022/11/08 01:19:46;;;;;;;12.20;11.40;;;9.30;99.90;;;;;;5008139;28;20280;-53
2022/11/08 01:22:12;;;;;;;12.90;11.90;;;9.30;99.90;;;;;;4998796;28;20835;-48
2022/11/08 01:24:37;;;;;;;13.57;12.50;;;9.30;99.90;;;;;;4998324;28;20269;-51
2022/11/08 01:27:03;;;;;;;13.23;12.17;;;9.30;99.90;;;;;;4990448;28;20183;-53
2022/11/08 01:29:28;;;;;;;12.30;11.40;;;9.30;99.90;;;;;;5000288;28;20250;-52
2022/11/08 01:31:54;;;;;;;12.80;11.90;;;9.30;99.90;;;;;;4996485;28;20192;-48
2022/11/08 01:34:19;;;;;;;12.70;11.87;;;9.30;99.90;;;;;;5007329;28;20191;-51
2022/11/08 01:36:45;;;;;;;12.90;11.93;;;9.30;99.90;;;;;;5011897;28;20333;-51
2022/11/08 01:39:10;;;;;;;13.03;12.00;;;9.30;99.90;;;;;;5012226;28;20183;-52
2022/11/08 01:41:37;;;;;;;12.73;11.73;;;9.20;99.90;;;;;;5013239;28;20276;-50
2022/11/08 01:44:03;;;;;;;13.07;11.87;;;9.20;99.90;;;;;;5004407;28;20611;-46
2022/11/08 01:46:30;;;;;;;13.20;12.20;;;9.20;99.90;;;;;;5014941;28;20421;-50
2022/11/08 01:49:28;;;;;;;13.03;12.13;;;9.20;99.90;;;;;;5011527;28;20187;-48
2022/11/08 01:52:06;;;;;;;13.27;12.30;;;9.10;99.90;;;;;;4979121;28;20438;-50
2022/11/08 01:54:43;;;;;;;14.73;13.43;;;9.10;99.90;;;;;;5006814;28;20433;-53
2022/11/08 01:57:13;;;;;;;13.80;12.70;;;9.00;99.90;;;;;;5012748;28;20460;-51
2022/11/08 01:59:41;;;;;;;14.20;13.00;;;9.00;99.90;;;;;;5013882;28;20438;-52
2022/11/08 02:02:08;;;;;;;14.57;13.47;;;9.00;99.90;;;;;;4998134;28;20855;-54
2022/11/08 02:04:35;;;;;;;14.47;13.17;;;9.00;99.90;;;;;;4995688;28;20441;-50
2022/11/08 02:07:01;;;;;;;14.63;13.43;;;8.90;99.90;;;;;;4996196;28;20506;-51
2022/11/08 02:09:27;;;;;;;14.43;13.23;;;8.90;99.90;;;;;;5011526;28;20453;-49
2022/11/08 02:11:53;;;;;;;14.90;13.80;;;8.80;99.90;;;;;;5008252;28;20477;-54
2022/11/08 02:14:20;;;;;;;15.40;14.00;;;8.80;99.90;;;;;;5008539;28;21090;-51
2022/11/08 02:16:45;;;;;;;13.90;12.90;;;8.80;99.90;;;;;;5015232;28;20568;-51
2022/11/08 02:19:21;;;;;;;14.77;13.63;;;8.70;99.90;;;;;;5000968;28;20545;-52
2022/11/08 02:21:54;;;;;;;14.30;13.10;;;8.80;99.90;;;;;;4995963;28;20744;-51
2022/11/08 02:24:20;;;;;;;15.00;13.60;;;8.80;99.90;;;;;;5011052;28;20517;-49
2022/11/08 02:26:48;;;;;;;15.10;13.90;;;8.80;99.90;;;;;;5013541;28;20834;-52
2022/11/08 02:29:32;;;;;;;15.47;14.20;;;8.80;99.90;;;;;;5013604;28;20550;-51
2022/11/08 02:31:59;;;;;;;14.23;13.20;;;8.80;99.90;;;;;;5011234;28;20437;-49
2022/11/08 02:34:31;;;;;;;14.77;13.60;;;8.80;99.90;;;;;;5003682;28;20442;-51
2022/11/08 02:36:58;;;;;;;14.77;13.60;;;8.80;99.90;;;;;;5008506;28;20807;-48
2022/11/08 02:39:23;;;;;;;16.17;14.57;;;8.80;99.90;;;;;;5012368;28;20493;-53
2022/11/08 02:41:49;;;;;;;15.50;14.30;;;8.80;99.90;;;;;;5007926;28;20529;-53
2022/11/08 02:44:15;;;;;;;17.30;15.90;;;8.70;99.90;;;;;;5004564;28;20589;-49
2022/11/08 02:46:40;;;;;;;15.63;14.13;;;8.80;99.90;;;;;;5016240;28;20546;-49
2022/11/08 02:49:06;;;;;;;16.90;15.40;;;8.70;99.90;;;;;;5005505;28;20250;-49
2022/11/08 02:51:31;;;;;;;16.63;15.23;;;8.70;99.90;;;;;;4993719;28;20198;-48
2022/11/08 02:53:57;;;;;;;16.50;15.10;;;8.70;99.90;;;;;;4992603;28;20188;-50
2022/11/08 02:56:23;;;;;;;15.90;14.60;;;8.70;99.90;;;;;;5004591;28;20238;-49
2022/11/08 02:58:48;;;;;;;15.73;14.33;;;8.60;99.90;;;;;;4996929;28;20218;-49
2022/11/08 03:01:14;;;;;;;15.07;13.77;;;8.60;99.90;;;;;;5010923;28;20183;-54
2022/11/08 03:03:39;;;;;;;16.07;14.57;;;8.60;99.90;;;;;;5004622;28;20184;-49
2022/11/08 03:06:05;;;;;;;16.53;15.00;;;8.60;99.90;;;;;;4994740;28;20615;-53
2022/11/08 03:08:30;;;;;;;15.87;14.57;;;8.50;99.90;;;;;;5008621;28;20645;-51
2022/11/08 03:10:58;;;;;;;15.97;14.77;;;8.50;99.90;;;;;;5011567;28;20210;-50
2022/11/08 03:13:24;;;;;;;15.37;14.17;;;8.50;99.90;;;;;;5008380;28;20175;-52
2022/11/08 03:15:50;;;;;;;16.50;15.10;;;8.50;99.90;;;;;;4992237;28;20477;-49
2022/11/08 03:18:15;;;;;;;15.90;14.60;;;8.50;99.90;;;;;;4996477;28;20258;-50
2022/11/08 03:20:41;;;;;;;17.53;16.13;;;8.50;99.90;;;;;;4991973;28;20255;-54
2022/11/08 03:23:06;;;;;;;16.57;15.27;;;8.50;99.90;;;;;;4992295;28;20202;-47
2022/11/08 03:25:33;;;;;;;17.70;16.00;;;8.50;99.90;;;;;;4993295;28;20210;-48
2022/11/08 03:28:03;;;;;;;16.97;15.60;;;8.50;99.90;;;;;;5001441;28;20287;-52
2022/11/08 03:30:28;;;;;;;17.40;15.90;;;8.50;99.90;;;;;;5009648;28;20788;-51
2022/11/08 03:32:54;;;;;;;17.30;15.60;;;8.50;99.90;;;;;;5011533;28;20422;-51
2022/11/08 03:35:20;;;;;;;17.00;15.40;;;8.50;99.90;;;;;;5009918;28;20199;-52
2022/11/08 03:37:49;;;;;;;17.37;15.77;;;8.50;99.90;;;;;;5006182;28;20234;-52
2022/11/08 03:40:15;;;;;;;17.97;16.47;;;8.50;99.90;;;;;;5009203;28;20528;-48
2022/11/08 03:42:40;;;;;;;16.77;15.27;;;8.50;99.90;;;;;;5008026;28;20448;-50
2022/11/08 03:45:06;;;;;;;17.33;15.73;;;8.50;99.90;;;;;;5006128;28;20709;-51
2022/11/08 03:47:38;;;;;;;17.70;16.10;;;8.40;99.90;;;;;;5011030;28;20712;-48
2022/11/08 03:50:06;;;;;;;17.40;16.00;;;8.40;99.90;;;;;;5009141;28;20437;-52
2022/11/08 03:52:38;;;;;;;16.97;15.60;;;8.50;99.90;;;;;;5007337;28;20465;-48
2022/11/08 03:55:04;;;;;;;17.53;16.03;;;8.40;99.90;;;;;;5007149;28;20446;-50
2022/11/08 03:57:29;;;;;;;17.63;16.17;;;8.40;99.90;;;;;;5003445;28;20830;-47
2022/11/08 03:59:55;;;;;;;18.10;16.50;;;8.30;99.90;;;;;;5001071;28;20437;-50
2022/11/08 04:02:20;;;;;;;17.13;15.70;;;8.30;99.90;;;;;;5005862;28;20639;-51
2022/11/08 04:04:46;;;;;;;19.23;17.43;;;8.40;99.90;;;;;;5003491;28;20269;-49
2022/11/08 04:07:11;;;;;;;17.20;15.70;;;8.40;99.90;;;;;;4993136;28;20212;-49
2022/11/08 04:09:37;;;;;;;18.20;16.60;;;8.40;99.90;;;;;;4992267;28;20192;-52
2022/11/08 04:22:59;;;;;;;17.90;16.13;;;8.30;99.90;;;;;;4998413;28;20526;-48
2022/11/08 04:25:24;;;;;;;16.53;15.03;;;8.30;99.90;;;;;;5003365;28;20474;-48
2022/11/08 04:27:50;;;;;;;17.33;15.63;;;8.20;99.90;;;;;;4998394;28;20188;-47
2022/11/08 04:30:15;;;;;;;17.10;15.60;;;8.20;99.90;;;;;;4997274;28;20195;-47
2022/11/08 04:32:41;;;;;;;16.97;15.47;;;8.20;99.90;;;;;;5006445;28;20241;-48
2022/11/08 04:35:06;;;;;;;17.00;15.50;;;8.10;99.90;;;;;;5001044;28;20190;-52
2022/11/08 04:37:32;;;;;;;16.23;14.93;;;8.10;99.90;;;;;;4996618;28;20856;-49
2022/11/08 04:39:58;;;;;;;17.80;16.07;;;8.10;99.90;;;;;;4998834;28;20184;-51
2022/11/08 04:42:23;;;;;;;17.40;16.00;;;8.10;99.90;;;;;;5010230;28;20190;-51
2022/11/08 04:44:49;;;;;;;17.90;16.50;;;8.10;99.90;;;;;;5003588;28;20325;-49
2022/11/08 04:47:14;;;;;;;17.53;15.87;;;8.10;99.90;;;;;;5002688;28;20188;-50
2022/11/08 04:49:40;;;;;;;17.50;16.10;;;8.10;99.90;;;;;;4994834;28;20187;-50
2022/11/08 04:52:05;;;;;;;17.23;15.83;;;8.00;99.90;;;;;;5000758;28;20622;-48
2022/11/08 04:54:31;;;;;;;17.47;15.87;;;8.00;99.90;;;;;;4990301;28;20197;-53
2022/11/08 04:56:56;;;;;;;18.52;16.70;;;8.00;99.90;;;;;;4988916;28;20905;-49
2022/11/08 04:59:22;;;;;;;18.43;16.83;;;7.90;99.90;;;;;;4992481;28;20230;-54
2022/11/08 05:01:48;;;;;;;17.90;16.30;;;7.90;99.90;;;;;;5004470;28;20195;-53
2022/11/08 05:04:13;;;;;;;18.53;16.93;;;7.80;99.90;;;;;;4992618;28;20277;-49
2022/11/08 05:06:39;;;;;;;17.10;15.50;;;7.80;99.90;;;;;;5009010;28;20604;-48
2022/11/08 05:09:04;;;;;;;18.50;16.77;;;7.90;99.90;;;;;;5008830;28;20712;-48
2022/11/08 05:11:30;;;;;;;18.97;17.27;;;7.80;99.90;;;;;;4995840;28;20203;-48
2022/11/08 05:13:56;;;;;;;19.03;17.33;;;7.80;99.90;;;;;;4990037;28;20549;-52
2022/11/08 05:16:27;;;;;;;17.87;16.17;;;7.80;99.90;;;;;;5005748;28;20458;-50
2022/11/08 05:18:53;;;;;;;20.57;17.40;;;7.80;99.90;;;;;;5005459;28;20785;-51
2022/11/08 05:24:06;;;;;;;18.60;16.60;;;7.70;99.90;;;;;;5009791;28;20471;-46
2022/11/08 05:26:34;;;;;;;18.40;17.00;;;7.70;99.90;;;;;;5009710;28;20862;-51
2022/11/08 05:28:59;;;;;;;17.53;15.97;;;7.70;99.90;;;;;;4999059;28;20507;-53
2022/11/08 05:31:25;;;;;;;21.20;18.07;;;7.60;99.90;;;;;;4989779;28;20505;-50
2022/11/08 05:33:51;;;;;;;20.50;18.77;;;7.60;99.90;;;;;;4989880;28;20634;-51
2022/11/08 05:36:17;;;;;;;19.77;17.93;;;7.60;99.90;;;;;;4990129;28;20238;-51
2022/11/08 05:38:43;;;;;;;20.30;18.40;;;7.50;99.90;;;;;;4990071;28;20481;-54
2022/11/08 05:41:17;;;;;;;19.77;17.97;;;7.50;99.90;;;;;;5005641;28;20508;-49
2022/11/08 05:43:48;;;;;;;18.97;17.37;;;7.50;99.90;;;;;;5009089;28;20189;-51
2022/11/08 05:46:15;;;;;;;19.73;17.97;;;7.50;99.90;;;;;;5009377;28;20507;-53
2022/11/08 05:48:42;;;;;;;18.50;16.70;;;7.50;99.90;;;;;;5009095;28;20506;-52
2022/11/08 05:51:09;;;;;;;21.60;18.43;;;7.50;99.90;;;;;;5009316;28;20428;-53
2022/11/08 05:53:34;;;;;;;20.57;18.57;;;7.50;99.90;;;;;;5003344;28;20441;-53
2022/11/08 05:56:03;;;;;;;21.57;18.30;;;7.50;99.90;;;;;;5003640;28;20871;-47
2022/11/08 05:58:31;;;;;;;21.30;19.40;;;7.40;99.90;;;;;;4991468;28;20194;-54
2022/11/08 06:01:08;;;;;;;20.40;18.60;;;7.40;99.90;;;;;;5003514;28;20430;-51
2022/11/08 06:03:34;;;;;;;19.77;18.10;;;7.40;99.90;;;;;;4995739;28;20443;-51
2022/11/08 06:06:05;;;;;;;19.73;18.03;;;7.40;99.90;;;;;;5008971;28;20771;-52
2022/11/08 06:08:30;;;;;;;19.93;17.93;;;7.50;99.90;;;;;;5007605;28;20228;-48
2022/11/08 06:11:02;;;;;;;19.37;17.50;;;7.50;99.90;;;;;;5009318;28;20433;-50
2022/11/08 06:13:27;;;;;;;21.10;19.00;;;7.50;99.90;;;;;;5005285;28;20189;-45
2022/11/08 06:15:53;;;;;;;19.80;17.80;;;7.50;99.90;;;;;;4992889;28;20465;-51
2022/11/08 06:18:18;;;;;;;20.50;18.70;;;7.50;99.90;;;;;;5011711;28;20177;-51
2022/11/08 06:20:44;;;;;;;18.93;17.13;;;7.60;99.90;;;;;;5032730;28;20370;-53
2022/11/08 06:23:09;;;;;;;19.70;17.67;;;7.60;99.90;;;;;;5000458;28;20222;-47
2022/11/08 06:25:36;;;;;;;19.57;17.57;;;7.60;99.90;;;;;;4993370;28;20253;-51
2022/11/08 06:28:01;;;;;;;20.03;18.13;;;7.50;99.90;;;;;;5003226;28;20575;-51
2022/11/08 06:30:28;;;;;;;21.10;19.13;;;7.60;99.90;;;;;;5012748;28;20421;-49
2022/11/08 06:32:53;;;;;;;19.40;17.80;;;7.60;99.90;;;;;;5012901;28;20186;-52
2022/11/08 06:35:19;;;;;;;18.67;17.07;;;7.60;99.90;;;;;;5012348;28;20416;-50
2022/11/08 06:37:44;;;;;;;19.73;17.83;;;7.60;99.90;;;;;;5012678;28;20668;-49
2022/11/08 06:40:10;;;;;;;20.57;18.47;;;7.70;99.90;;;;;;5012229;28;20170;-51
2022/11/08 06:42:36;;;;;;;20.63;18.53;;;7.70;99.90;;;;;;5008074;28;20179;-49
2022/11/08 06:45:01;;;;;;;19.37;17.67;;;7.70;99.90;;;;;;4997662;28;20281;-48
2022/11/08 06:47:27;;;;;;;19.20;17.70;;;7.80;99.90;;;;;;5012245;28;20599;-48
2022/11/08 06:49:52;;;;;;;19.10;17.30;;;7.80;99.90;;;;;;5009531;28;20957;-50
2022/11/08 06:52:18;;;;;;;18.60;17.10;;;8.00;99.90;;;;;;5007983;28;20205;-53
2022/11/08 06:54:43;;;;;;;19.13;17.33;;;8.00;99.90;;;;;;4996719;28;20190;-49
2022/11/08 06:57:09;;;;;;;18.17;16.67;;;8.00;99.90;;;;;;5011033;28;20238;-51
2022/11/08 06:59:34;;;;;;;19.30;17.47;;;8.10;99.90;;;;;;4999826;28;20211;-50
2022/11/08 07:02:00;;;;;;;18.73;16.93;;;8.20;99.90;;;;;;5011154;28;21135;-51
2022/11/08 07:04:25;;;;;;;18.70;17.10;;;8.20;99.90;;;;;;5002966;28;20198;-49
2022/11/08 07:06:51;;;;;;;18.77;17.07;;;8.30;99.90;;;;;;4992749;28;20234;-54
2022/11/08 07:09:17;;;;;;;17.33;15.70;;;8.40;99.90;;;;;;4992230;28;20195;-46
2022/11/08 07:11:42;;;;;;;17.17;15.57;;;8.50;99.90;;;;;;4993666;28;20197;-49
2022/11/08 07:14:08;;;;;;;17.23;15.63;;;8.60;99.90;;;;;;5010318;28;20221;-49
2022/11/08 07:16:33;;;;;;;18.50;16.70;;;8.70;99.90;;;;;;4998967;28;20202;-48
2022/11/08 07:18:59;;;;;;;18.13;16.43;;;8.80;99.90;;;;;;4995392;28;20172;-52
2022/11/08 07:21:24;;;;;;;19.57;17.73;;;8.90;99.90;;;;;;4993830;28;20257;-46
2022/11/08 07:23:50;;;;;;;17.60;16.10;;;9.00;99.90;;;;;;4996882;28;20709;-46
2022/11/08 07:26:16;;;;;;;18.57;17.07;;;9.10;99.90;;;;;;5011224;28;20194;-49
2022/11/08 07:28:41;;;;;;;17.33;15.83;;;9.20;99.90;;;;;;5010191;28;20237;-50
2022/11/08 07:31:08;;;;;;;15.67;14.27;;;9.20;99.90;;;;;;4999662;28;20191;-46
2022/11/08 07:33:34;;;;;;;16.87;15.37;;;9.30;99.90;;;;;;5011270;28;20191;-51
2022/11/08 07:36:00;;;;;;;16.60;15.13;;;9.40;99.90;;;;;;5011070;28;20516;-48
2022/11/08 07:38:25;;;;;;;15.60;14.30;;;9.50;99.90;;;;;;5010154;28;20224;-49
2022/11/08 07:40:55;;;;;;;17.13;15.63;;;9.60;99.90;;;;;;5011076;28;20414;-48
2022/11/08 07:43:21;;;;;;;16.47;14.90;;;9.90;99.90;;;;;;5011130;28;20184;-52
2022/11/08 07:45:56;;;;;;;15.77;14.43;;;10.20;99.90;;;;;;5011647;28;20441;-52
2022/11/08 07:48:21;;;;;;;14.77;13.57;;;10.70;99.90;;;;;;5007716;28;20198;-49
2022/11/08 07:50:47;;;;;;;15.77;14.37;;;11.20;99.90;;;;;;4997302;28;20934;-51
2022/11/08 07:53:12;;;;;;;14.77;13.47;;;11.60;99.90;;;;;;4997194;28;20226;-48
2022/11/08 07:55:39;;;;;;;14.50;13.30;;;12.00;99.90;;;;;;4997830;28;20301;-48
2022/11/08 07:58:06;;;;;;;12.77;11.63;;;12.40;99.90;;;;;;4996677;28;20213;-50
2022/11/08 08:00:37;;;;;;;12.73;11.70;;;12.80;99.90;;;;;;4991271;28;20825;-50
2022/11/08 08:03:04;;;;;;;14.97;13.80;;;13.10;99.90;;;;;;5006182;28;20408;-50
2022/11/08 08:05:34;;;;;;;16.83;15.50;;;13.20;99.90;;;;;;5010393;28;20859;-53
2022/11/08 08:08:01;;;;;;;16.40;15.20;;;13.50;99.90;;;;;;5009347;28;20903;-51
2022/11/08 08:10:27;;;;;;;16.23;15.13;;;13.70;99.90;;;;;;4991014;28;20537;-49
2022/11/08 08:12:53;;;;;;;17.13;15.53;;;14.00;99.90;;;;;;5005353;28;20456;-51
2022/11/08 08:15:19;;;;;;;16.63;15.27;;;14.30;99.90;;;;;;5010643;28;20943;-51
2022/11/08 08:17:45;;;;;;;16.63;15.43;;;14.40;99.90;;;;;;4997606;28;20423;-50
2022/11/08 08:20:11;;;;;;;16.50;15.40;;;14.80;99.90;;;;;;5017182;28;20238;-47
2022/11/08 08:22:48;;;;;;;15.60;14.60;;;15.00;99.90;;;;;;5007156;28;20193;-50
2022/11/08 08:25:16;;;;;;;16.90;15.50;;;15.20;99.90;;;;;;5003431;28;20526;-48
2022/11/08 08:27:49;;;;;;;16.30;15.13;;;15.30;99.90;;;;;;5010127;28;20425;-50
2022/11/08 08:30:16;;;;;;;15.50;14.50;;;15.80;99.90;;;;;;5010370;28;20503;-54
2022/11/08 08:32:42;;;;;;;15.93;14.93;;;15.60;99.90;;;;;;5010443;28;20422;-52
2022/11/08 08:35:08;;;;;;;16.70;15.57;;;15.60;99.90;;;;;;5010024;28;20994;-49
2022/11/08 08:37:33;;;;;;;16.30;14.90;;;16.30;99.90;;;;;;5009806;28;20465;-51
2022/11/08 08:39:59;;;;;;;15.50;14.43;;;16.80;97.80;;;;;;5010026;28;20559;-50
2022/11/08 08:42:25;;;;;;;15.93;14.77;;;17.20;96.50;;;;;;5009198;28;20582;-49
2022/11/08 08:44:50;;;;;;;17.40;16.20;;;17.30;95.70;;;;;;4999788;28;20654;-50
2022/11/08 08:47:16;;;;;;;15.83;14.63;;;17.80;95.40;;;;;;5003559;28;20194;-49
2022/11/08 08:49:41;;;;;;;15.73;14.73;;;17.90;92.50;;;;;;4990855;28;20184;-51
2022/11/08 08:52:07;;;;;;;16.10;14.97;;;18.20;91.60;;;;;;4990334;28;20538;-54
2022/11/08 08:54:32;;;;;;;15.50;14.40;;;18.40;91.70;;;;;;4990182;28;20668;-49
2022/11/08 08:56:58;;;;;;;15.63;14.63;;;18.80;90.30;;;;;;4995606;28;20219;-50
2022/11/08 08:59:23;;;;;;;15.83;14.73;;;18.90;88.60;;;;;;4994774;28;20188;-49
2022/11/08 09:01:49;;;;;;;14.90;13.97;;;18.80;87.20;;;;;;4999893;28;20271;-48
2022/11/08 09:04:15;;;;;;;15.73;14.60;;;19.20;85.20;;;;;;4999511;28;20257;-49
2022/11/08 09:06:40;;;;;;;16.50;15.30;;;19.20;83.30;;;;;;4999120;28;20219;-50
2022/11/08 09:09:06;;;;;;;15.30;14.40;;;19.50;83.90;;;;;;5009687;28;20253;-52
2022/11/08 09:11:31;;;;;;;15.00;14.13;;;19.70;81.90;;;;;;5006225;28;20183;-53
2022/11/08 09:13:57;;;;;;;15.00;14.03;;;20.30;80.00;;;;;;5009617;28;20421;-50
2022/11/08 09:16:23;;;;;;;15.33;14.43;;;20.60;74.50;;;;;;5009630;28;20665;-50
2022/11/08 09:18:48;;;;;;;15.40;14.40;;;20.80;73.50;;;;;;5014210;28;20175;-51
2022/11/08 09:21:14;;;;;;;14.60;13.80;;;21.10;71.80;;;;;;5009230;28;20577;-54
2022/11/08 09:23:41;;;;;;;14.20;13.40;;;21.50;68.00;;;;;;5009044;28;20638;-54
2022/11/08 09:26:06;;;;;;;14.90;14.00;;;21.80;67.20;;;;;;4989867;28;20184;-50
2022/11/08 09:28:34;;;;;;;15.00;13.90;;;22.10;64.70;;;;;;5002952;28;20425;-49
2022/11/08 09:31:08;;;;;;;14.53;13.63;;;22.10;63.40;;;;;;5005897;28;20369;-49
2022/11/08 09:33:35;;;;;;;13.90;13.00;;;22.00;63.70;;;;;;5009015;28;20456;-51
2022/11/08 09:36:02;;;;;;;14.73;13.83;;;21.60;62.70;;;;;;5007971;28;20520;-53
2022/11/08 09:38:28;;;;;;;14.50;13.60;;;22.00;63.90;;;;;;5009234;28;20414;-54
2022/11/08 09:41:16;;;;;;;15.03;14.03;;;22.20;62.00;;;;;;5009384;28;20927;-52
2022/11/08 09:44:00;;;;;;;15.50;14.50;;;22.20;59.60;;;;;;5005594;28;20632;-51
2022/11/08 09:46:37;;;;;;;13.73;12.83;;;22.60;59.80;;;;;;5003716;28;20425;-49
2022/11/08 09:49:06;;;;;;;14.20;13.30;;;23.20;58.40;;;;;;5011319;28;20513;-53
2022/11/08 09:51:34;;;;;;;14.10;13.10;;;23.20;55.10;;;;;;5013124;28;20417;-52
2022/11/08 09:54:02;;;;;;;14.00;13.13;;;22.70;56.90;;;;;;5011427;28;20418;-52
2022/11/08 09:56:35;;;;;;;14.10;13.30;;;23.10;57.10;;;;;;4999534;28;20859;-46
2022/11/08 09:59:18;;;;;;;14.07;13.10;;;23.40;55.30;;;;;;4993530;28;20414;-48
2022/11/08 10:01:44;;;;;;;13.90;12.87;;;23.30;53.60;;;;;;4998558;28;20437;-53
2022/11/08 10:04:16;;;;;;;13.97;13.07;;;23.60;55.70;;;;;;5012087;28;20452;-52
2022/11/08 10:07:06;;;;;;;12.90;12.10;;;24.20;52.90;;;;;;5013143;28;20202;-51
2022/11/08 10:09:59;;;;;;;13.43;12.73;;;24.30;52.20;;;;;;5007508;28;20538;-52
2022/11/08 10:12:54;;;;;;;13.13;12.33;;;24.00;53.10;;;;;;5008800;28;20491;-48
2022/11/08 10:15:49;;;;;;;12.93;12.13;;;24.20;52.30;;;;;;5012797;28;20422;-50
2022/11/08 10:18:22;;;;;;;12.97;11.97;;;24.50;50.90;;;;;;5014356;28;20424;-49
2022/11/08 10:21:06;;;;;;;12.20;11.57;;;24.10;50.00;;;;;;5015311;28;20458;-51
2022/11/08 10:23:55;;;;;;;12.20;11.50;;;24.30;51.10;;;;;;5012561;28;20433;-50
2022/11/08 10:26:28;;;;;;;12.00;11.40;;;24.60;50.10;;;;;;5012425;28;20841;-46
2022/11/08 10:29:01;;;;;;;12.93;12.10;;;24.70;49.60;;;;;;5012429;28;20449;-52
2022/11/08 10:31:32;;;;;;;12.20;11.60;;;25.10;48.60;;;;;;5010651;28;20426;-51
2022/11/08 10:34:00;;;;;;;12.60;11.60;;;25.30;47.50;;;;;;5010230;28;20874;-48
2022/11/08 10:36:43;;;;;;;12.40;11.70;;;25.10;47.10;;;;;;5001435;28;21026;-49
2022/11/08 10:39:21;;;;;;;12.57;11.77;;;25.00;47.80;;;;;;5012129;28;20509;-50
2022/11/08 10:42:08;;;;;;;12.80;11.90;;;24.80;48.50;;;;;;5012391;28;20980;-50
2022/11/08 10:44:35;;;;;;;12.77;12.03;;;24.90;49.10;;;;;;5006630;28;20427;-52
2022/11/08 10:47:04;;;;;;;12.40;11.60;;;25.40;47.60;;;;;;5004743;28;20418;-49
2022/11/08 10:49:33;;;;;;;12.17;11.37;;;25.40;46.80;;;;;;5012218;28;20750;-52
2022/11/08 10:52:05;;;;;;;11.50;10.90;;;25.70;45.80;;;;;;5002394;28;21345;-52
2022/11/08 10:54:50;;;;;;;11.00;10.40;;;26.20;44.50;;;;;;4992269;28;20438;-49
2022/11/08 10:57:27;;;;;;;10.60;10.10;;;26.20;43.00;;;;;;5010511;28;20824;-49
2022/11/08 10:59:54;;;;;;;10.70;10.10;;;26.10;42.50;;;;;;5011436;28;20446;-50
2022/11/08 11:02:33;;;;;;;10.60;10.10;;;26.70;41.60;;;;;;5011844;28;20426;-48
2022/11/08 11:05:17;;;;;;;11.23;10.63;;;26.80;40.50;;;;;;5001864;28;20522;-48
2022/11/08 11:08:08;;;;;;;10.30;9.80;;;26.50;39.30;;;;;;4992359;28;20504;-47
2022/11/08 11:10:36;;;;;;;10.83;10.33;;;26.50;40.20;;;;;;4991367;28;20549;-52
2022/11/08 11:13:22;;;;;;;10.67;10.17;;;26.80;38.70;;;;;;4992153;28;20423;-50
2022/11/08 11:15:57;;;;;;;10.50;10.00;;;26.20;37.80;;;;;;4991905;28;20730;-53
2022/11/08 11:18:33;;;;;;;9.70;9.30;;;26.10;40.30;;;;;;4998459;28;20418;-47
2022/11/08 11:21:09;;;;;;;8.47;7.97;;;26.00;39.30;;;;;;5007648;28;20478;-49
2022/11/08 11:23:45;;;;;;;8.27;7.70;;;25.40;41.00;;;;;;4991775;28;20422;-49
2022/11/08 11:26:31;;;;;;;8.93;8.40;;;25.10;40.30;;;;;;4999090;28;20984;-49
2022/11/08 11:29:05;;;;;;;8.00;7.60;;;24.80;40.80;;;;;;5011356;28;20433;-50
2022/11/08 11:31:38;;;;;;;8.00;7.50;;;24.30;43.10;;;;;;5006760;28;20436;-46
2022/11/08 11:34:16;;;;;;;7.33;6.93;;;24.50;42.60;;;;;;4994325;28;20425;-51
2022/11/08 11:37:02;;;;;;;8.43;8.00;;;24.00;42.90;;;;;;4991411;28;20490;-52
2022/11/08 11:39:34;;;;;;;7.37;6.97;;;23.60;43.80;;;;;;4998888;28;20434;-51
2022/11/08 11:42:15;;;;;;;8.50;8.10;;;23.30;43.40;;;;;;5010984;28;20932;-45
2022/11/08 11:45:12;;;;;;;9.20;8.70;;;22.70;44.00;;;;;;5011208;28;20453;-46
2022/11/08 11:47:54;;;;;;;9.00;8.60;;;22.80;44.60;;;;;;5009027;28;20974;-50
2022/11/08 11:50:22;;;;;;;9.13;8.63;;;22.20;45.00;;;;;;4991363;28;20434;-48
2022/11/08 11:52:48;;;;;;;8.17;7.77;;;22.10;45.70;;;;;;4991358;28;20443;-49
2022/11/08 11:55:15;;;;;;;8.97;8.37;;;21.80;46.40;;;;;;4994572;28;20453;-48
2022/11/08 11:58:04;;;;;;;9.07;8.67;;;21.80;46.50;;;;;;4997263;28;20214;-47
2022/11/08 12:00:31;;;;;;;9.20;8.70;;;21.70;46.50;;;;;;4999106;28;20423;-51
2022/11/08 12:03:13;;;;;;;9.60;9.10;;;21.70;47.40;;;;;;5000558;28;20930;-45
2022/11/08 12:06:10;;;;;;;8.80;8.33;;;22.00;46.90;;;;;;4991352;28;20423;-45
2022/11/08 12:08:59;;;;;;;8.60;8.20;;;22.20;46.30;;;;;;5001381;28;20815;-47
2022/11/08 12:11:43;;;;;;;9.17;8.57;;;22.60;46.40;;;;;;5010302;28;20414;-46
2022/11/08 12:14:29;;;;;;;8.87;8.47;;;23.00;45.70;;;;;;5010485;28;20414;-46
2022/11/08 12:17:16;;;;;;;9.67;9.17;;;23.00;44.60;;;;;;4991522;28;20459;-47
2022/11/08 12:19:49;;;;;;;9.20;8.60;;;23.10;44.10;;;;;;5013458;28;20421;-48
2022/11/08 12:22:35;;;;;;;8.47;8.07;;;23.60;44.50;;;;;;5010433;28;20440;-45
2022/11/08 12:25:01;;;;;;;8.40;7.80;;;23.70;43.60;;;;;;5004993;28;20419;-49
2022/11/08 12:27:45;;;;;;;8.97;8.30;;;23.50;43.90;;;;;;4990567;28;20792;-50
2022/11/08 12:30:35;;;;;;;9.27;8.77;;;23.20;44.50;;;;;;4997935;28;20719;-46
2022/11/08 12:33:31;;;;;;;8.20;7.70;;;23.60;43.70;;;;;;5010673;28;20442;-50
2022/11/08 12:36:00;;;;;;;8.50;7.90;;;23.10;43.20;;;;;;5008392;28;20476;-51
2022/11/08 12:39:22;;;;;;;9.03;8.53;;;22.90;43.90;;;;;;4996868;28;20449;-50
2022/11/08 12:42:02;;;;;;;9.17;8.67;;;22.90;44.70;;;;;;5007031;28;20438;-46
2022/11/08 12:44:55;;;;;;;9.13;8.53;;;22.70;44.90;;;;;;5004508;28;20434;-48
2022/11/08 12:47:36;;;;;;;8.37;7.97;;;22.40;44.50;;;;;;5010296;28;20422;-46
2022/11/08 12:50:10;;;;;;;8.77;8.17;;;22.60;45.10;;;;;;4997094;28;20437;-46
2022/11/08 12:52:47;;;;;;;8.80;8.23;;;22.80;45.20;;;;;;5009781;28;20900;-50
2022/11/08 12:55:23;;;;;;;9.80;9.20;;;23.10;44.40;;;;;;5010283;28;20881;-48
2022/11/08 12:57:52;;;;;;;8.87;8.40;;;22.30;44.40;;;;;;4996285;28;20834;-52
2022/11/08 13:00:18;;;;;;;9.00;8.50;;;21.70;45.40;;;;;;5002360;28;20956;-48
2022/11/08 13:02:59;;;;;;;9.10;8.60;;;21.30;46.00;;;;;;4990125;28;20498;-47
2022/11/08 13:05:31;;;;;;;8.40;7.80;;;21.40;47.00;;;;;;4999747;28;20437;-46
2022/11/08 13:08:10;;;;;;;8.80;8.20;;;21.30;47.90;;;;;;5005118;28;20434;-49
2022/11/08 13:11:05;;;;;;;9.87;9.30;;;21.30;47.10;;;;;;4990225;28;20897;-53
2022/11/08 13:13:49;;;;;;;9.30;8.70;;;21.60;47.50;;;;;;4992344;28;20407;-47